createdAt,value
2024-02-24T00:00:31.110Z,2.76
2024-02-24T00:02:57.931Z,2.21
2024-02-24T00:05:28.359Z,2.59
2024-02-24T00:07:55.092Z,2.70
2024-02-24T00:10:22.491Z,2.87
2024-02-24T00:12:49.723Z,2.89
2024-02-24T00:15:16.596Z,2.83
2024-02-24T00:17:44.221Z,2.98
2024-02-24T00:20:12.406Z,3.21
2024-02-24T00:22:39.238Z,2.90
2024-02-24T00:25:06.533Z,2.97
2024-02-24T00:27:33.248Z,3.12
2024-02-24T00:30:00.643Z,3.22
2024-02-24T00:32:27.671Z,3.19
2024-02-24T00:34:54.389Z,3.30
2024-02-24T00:37:21.115Z,3.43
2024-02-24T00:39:47.839Z,3.43
2024-02-24T00:42:14.562Z,3.45
2024-02-24T00:44:41.355Z,3.52
2024-02-24T00:47:08.216Z,3.27
2024-02-24T00:49:34.871Z,2.09
2024-02-24T00:52:01.647Z,2.18
2024-02-24T00:54:28.371Z,2.53
2024-02-24T00:56:55.050Z,2.74
2024-02-24T00:59:21.899Z,2.96
2024-02-24T01:01:49.434Z,3.17
2024-02-24T01:04:16.839Z,2.54
2024-02-24T01:06:43.505Z,2.86
2024-02-24T01:09:10.177Z,2.87
2024-02-24T01:11:36.953Z,2.65
2024-02-24T01:14:03.846Z,2.62
2024-02-24T01:16:31.882Z,2.49
2024-02-24T01:18:58.633Z,1.93
2024-02-24T01:21:25.334Z,2.03
2024-02-24T01:23:52.423Z,2.21
2024-02-24T01:26:19.189Z,2.36
2024-02-24T01:28:49.292Z,2.76
2024-02-24T01:31:16.025Z,2.32
2024-02-24T01:33:42.825Z,2.71
2024-02-24T01:36:09.568Z,2.67
2024-02-24T01:38:36.347Z,2.69
2024-02-24T01:41:03.217Z,2.73
2024-02-24T01:43:30.680Z,2.49
2024-02-24T01:45:58.214Z,2.39
2024-02-24T01:48:25.181Z,2.43
2024-02-24T01:50:52.051Z,2.81
2024-02-24T01:53:18.757Z,2.14
2024-02-24T01:55:45.501Z,2.02
2024-02-24T01:58:12.466Z,2.39
2024-02-24T02:00:39.226Z,1.85
2024-02-24T02:03:06.032Z,2.23
2024-02-24T02:05:32.735Z,2.16
2024-02-24T02:07:59.470Z,1.99
2024-02-24T02:10:26.231Z,1.83
2024-02-24T02:12:53.139Z,2.14
2024-02-24T02:15:19.900Z,1.94
2024-02-24T02:17:46.720Z,1.95
2024-02-24T02:20:13.509Z,2.09
2024-02-24T02:22:40.283Z,2.15
2024-02-24T02:25:07.234Z,2.09
2024-02-24T02:27:33.913Z,2.33
2024-02-24T02:30:02.713Z,2.29
2024-02-24T02:32:29.627Z,2.13
2024-02-24T02:34:56.535Z,2.19
2024-02-24T02:37:23.186Z,2.17
2024-02-24T02:39:49.948Z,2.22
2024-02-24T02:42:16.707Z,1.67
2024-02-24T02:44:43.446Z,1.92
2024-02-24T02:47:17.648Z,2.14
2024-02-24T02:49:49.882Z,2.25
2024-02-24T02:52:16.615Z,2.00
2024-02-24T02:54:43.279Z,2.05
2024-02-24T02:57:09.971Z,2.17
2024-02-24T02:59:36.823Z,1.62
2024-02-24T03:02:03.821Z,1.74
2024-02-24T03:04:30.557Z,1.59
2024-02-24T03:06:57.352Z,1.73
2024-02-24T03:09:24.025Z,1.73
2024-02-24T03:11:50.922Z,1.86
2024-02-24T03:14:17.774Z,2.00
2024-02-24T03:16:44.455Z,1.89
2024-02-24T03:19:11.306Z,1.63
2024-02-24T03:21:38.018Z,1.64
2024-02-24T03:24:07.114Z,1.30
2024-02-24T03:26:34.196Z,1.21
2024-02-24T03:29:00.883Z,1.11
2024-02-24T03:31:27.529Z,1.31
2024-02-24T03:33:54.922Z,1.50
2024-02-24T03:36:21.815Z,1.62
2024-02-24T03:38:48.547Z,1.50
2024-02-24T03:41:15.311Z,1.29
2024-02-24T03:43:42.087Z,1.03
2024-02-24T03:46:08.856Z,1.07
2024-02-24T03:48:35.853Z,1.37
2024-02-24T03:51:02.725Z,1.61
2024-02-24T03:53:32.498Z,1.57
2024-02-24T03:55:59.445Z,1.87
2024-02-24T03:58:26.229Z,2.00
2024-02-24T04:00:53.262Z,1.96
2024-02-24T04:03:20.356Z,2.02
2024-02-24T04:05:50.118Z,1.87
2024-02-24T04:08:17.091Z,1.72
2024-02-24T04:10:47.015Z,1.80
2024-02-24T04:13:13.789Z,1.87
2024-02-24T04:15:46.678Z,1.83
2024-02-24T04:18:14.063Z,1.89
2024-02-24T04:20:41.597Z,1.99
2024-02-24T04:23:08.769Z,1.97
2024-02-24T04:25:35.451Z,1.59
2024-02-24T04:28:02.192Z,1.60
2024-02-24T04:30:28.981Z,1.51
2024-02-24T04:32:57.036Z,1.58
2024-02-24T04:35:24.518Z,1.79
2024-02-24T04:37:51.229Z,2.00
2024-02-24T04:40:18.153Z,2.07
2024-02-24T04:42:44.869Z,2.37
2024-02-24T04:45:11.575Z,2.15
2024-02-24T04:47:38.440Z,1.50
2024-02-24T04:50:05.776Z,1.73
2024-02-24T04:52:32.509Z,1.51
2024-02-24T04:54:59.369Z,0.87
2024-02-24T04:57:26.009Z,1.07
2024-02-24T04:59:52.837Z,1.31
2024-02-24T05:02:19.620Z,1.61
2024-02-24T05:04:46.364Z,1.17
2024-02-24T05:07:13.082Z,1.15
2024-02-24T05:09:39.722Z,1.69
2024-02-24T05:12:06.668Z,1.23
2024-02-24T05:14:33.496Z,1.69
2024-02-24T05:17:00.281Z,1.72
2024-02-24T05:19:28.185Z,1.83
2024-02-24T05:21:56.543Z,1.76
2024-02-24T05:24:23.313Z,2.02
2024-02-24T05:26:50.054Z,1.81
2024-02-24T05:29:17.738Z,2.01
2024-02-24T05:31:44.486Z,1.71
2024-02-24T05:34:11.174Z,1.61
2024-02-24T05:36:37.946Z,1.86
2024-02-24T05:39:05.431Z,2.06
2024-02-24T05:41:32.190Z,2.20
2024-02-24T05:43:58.972Z,2.67
2024-02-24T05:46:25.706Z,2.85
2024-02-24T05:48:52.540Z,2.79
2024-02-24T05:51:20.305Z,1.92
2024-02-24T05:53:47.121Z,1.81
2024-02-24T05:56:14.155Z,1.59
2024-02-24T05:58:40.910Z,1.53
2024-02-24T06:01:07.819Z,1.56
2024-02-24T06:03:36.337Z,1.77
2024-02-24T06:06:03.170Z,1.95
2024-02-24T06:08:30.002Z,2.21
2024-02-24T06:10:56.817Z,2.18
2024-02-24T06:13:23.522Z,2.43
2024-02-24T06:15:50.278Z,2.68
2024-02-24T06:18:17.109Z,2.69
2024-02-24T06:20:43.969Z,2.64
2024-02-24T06:23:10.781Z,2.76
2024-02-24T06:25:38.244Z,3.04
2024-02-24T06:28:05.101Z,3.37
2024-02-24T06:30:32.066Z,3.21
2024-02-24T06:32:58.822Z,3.04
2024-02-24T06:35:25.495Z,3.18
2024-02-24T06:37:52.158Z,3.61
2024-02-24T06:40:26.100Z,3.45
2024-02-24T06:43:00.226Z,3.90
2024-02-24T06:45:26.987Z,3.90
2024-02-24T06:47:53.824Z,4.12
2024-02-24T06:50:20.933Z,4.17
2024-02-24T06:52:47.691Z,3.81
2024-02-24T06:55:14.501Z,3.82
2024-02-24T06:57:41.243Z,4.40
2024-02-24T07:00:08.991Z,4.47
2024-02-24T07:02:35.784Z,4.55
2024-02-24T07:05:03.572Z,5.33
2024-02-24T07:07:30.371Z,5.16
2024-02-24T07:09:57.091Z,5.40
2024-02-24T07:12:23.800Z,5.75
2024-02-24T07:14:50.544Z,5.55
2024-02-24T07:17:17.312Z,5.67
2024-02-24T07:19:44.142Z,5.74
2024-02-24T07:22:10.781Z,6.13
2024-02-24T07:24:37.433Z,6.23
2024-02-24T07:27:04.264Z,6.56
2024-02-24T07:29:32.738Z,6.72
2024-02-24T07:31:59.567Z,7.36
2024-02-24T07:34:26.320Z,7.54
2024-02-24T07:36:53.106Z,6.82
2024-02-24T07:39:20.038Z,7.15
2024-02-24T07:41:46.740Z,7.82
2024-02-24T07:44:13.545Z,8.37
2024-02-24T07:46:40.327Z,8.27
2024-02-24T07:49:07.394Z,8.38
2024-02-24T07:51:34.753Z,8.83
2024-02-24T07:54:01.442Z,8.85
2024-02-24T07:56:28.685Z,8.73
2024-02-24T07:58:55.822Z,8.51
2024-02-24T08:01:22.634Z,8.23
2024-02-24T08:03:49.341Z,8.05
2024-02-24T08:06:16.119Z,8.74
2024-02-24T08:08:42.926Z,8.88
2024-02-24T08:11:09.862Z,9.30
2024-02-24T08:13:43.300Z,9.56
2024-02-24T08:16:10.454Z,9.72
2024-02-24T08:18:37.396Z,10.03
2024-02-24T08:21:07.803Z,10.12
2024-02-24T08:23:37.741Z,9.97
2024-02-24T08:26:04.598Z,10.39
2024-02-24T08:28:31.383Z,11.25
2024-02-24T08:31:01.037Z,11.09
2024-02-24T08:33:28.328Z,11.25
2024-02-24T08:35:55.310Z,11.66
2024-02-24T08:38:22.077Z,11.06
2024-02-24T08:40:48.789Z,11.67
2024-02-24T08:43:15.465Z,11.89
2024-02-24T08:45:43.080Z,11.22
2024-02-24T08:48:13.967Z,11.39
2024-02-24T08:50:41.741Z,11.94
2024-02-24T08:53:08.671Z,12.18
2024-02-24T08:55:35.337Z,12.76
2024-02-24T08:58:02.018Z,12.67
2024-02-24T09:00:28.803Z,12.89
2024-02-24T09:02:55.758Z,13.08
2024-02-24T09:05:22.572Z,12.80
2024-02-24T09:07:49.385Z,13.07
2024-02-24T09:10:16.215Z,13.56
2024-02-24T09:12:43.024Z,13.95
2024-02-24T09:15:09.869Z,14.05
2024-02-24T09:17:36.631Z,14.19
2024-02-24T09:20:03.955Z,14.39
2024-02-24T09:22:30.789Z,13.47
2024-02-24T09:24:58.093Z,13.36
2024-02-24T09:27:24.740Z,13.77
2024-02-24T09:29:51.533Z,13.48
2024-02-24T09:32:19.423Z,13.35
2024-02-24T09:34:46.446Z,13.48
2024-02-24T09:37:13.274Z,13.99
2024-02-24T09:39:43.579Z,14.49
2024-02-24T09:42:10.991Z,13.63
2024-02-24T09:44:38.182Z,13.89
2024-02-24T09:47:05.228Z,13.62
2024-02-24T09:49:32.194Z,14.26
2024-02-24T09:52:00.026Z,14.55
2024-02-24T09:54:29.305Z,14.61
2024-02-24T09:56:56.390Z,14.87
2024-02-24T09:59:24.357Z,14.69
2024-02-24T10:01:51.574Z,14.82
2024-02-24T10:04:19.262Z,15.04
2024-02-24T10:06:46.011Z,15.18
2024-02-24T10:09:13.059Z,14.68
2024-02-24T10:11:40.457Z,14.25
2024-02-24T10:14:07.502Z,14.07
2024-02-24T10:16:40.294Z,14.47
2024-02-24T10:19:07.550Z,14.84
2024-02-24T10:21:34.915Z,15.03
2024-02-24T10:24:02.185Z,14.92
2024-02-24T10:26:29.221Z,14.46
2024-02-24T10:28:56.056Z,15.06
2024-02-24T10:31:24.584Z,15.11
2024-02-24T10:33:51.303Z,15.16
2024-02-24T10:36:18.143Z,15.50
2024-02-24T10:38:48.471Z,15.58
2024-02-24T10:41:24.482Z,15.96
2024-02-24T10:44:01.742Z,16.26
2024-02-24T10:46:33.054Z,15.60
2024-02-24T10:48:59.799Z,15.91
2024-02-24T10:51:26.428Z,16.07
2024-02-24T10:53:55.302Z,15.64
2024-02-24T10:56:22.070Z,15.93
2024-02-24T10:58:48.749Z,15.46
2024-02-24T11:01:18.591Z,14.87
2024-02-24T11:03:45.252Z,14.56
2024-02-24T11:06:13.580Z,14.28
2024-02-24T11:08:44.454Z,14.66
2024-02-24T11:11:12.559Z,14.43
2024-02-24T11:13:55.941Z,14.62
2024-02-24T11:16:34.263Z,14.55
2024-02-24T11:19:01.218Z,14.58
2024-02-24T11:22:01.801Z,14.58
2024-02-24T11:24:34.911Z,14.53
2024-02-24T11:27:02.536Z,14.34
2024-02-24T11:29:29.369Z,14.33
2024-02-24T11:32:15.487Z,14.15
2024-02-24T11:34:46.572Z,14.38
2024-02-24T11:37:17.827Z,14.76
2024-02-24T11:39:45.881Z,14.70
2024-02-24T11:42:13.090Z,14.51
2024-02-24T11:44:44.085Z,14.84
2024-02-24T11:47:10.936Z,14.77
2024-02-24T11:49:47.431Z,14.76
2024-02-24T11:52:17.536Z,14.95
2024-02-24T11:54:45.064Z,15.38
2024-02-24T11:57:12.973Z,14.69
2024-02-24T11:59:40.070Z,14.58
2024-02-24T12:02:06.886Z,14.98
2024-02-24T12:04:33.925Z,14.66
2024-02-24T12:07:02.932Z,14.42
2024-02-24T12:09:30.321Z,14.49
2024-02-24T12:11:58.012Z,14.69
2024-02-24T12:14:28.329Z,14.63
2024-02-24T12:16:58.029Z,14.34
2024-02-24T12:19:29.204Z,13.95
2024-02-24T12:21:56.404Z,14.09
2024-02-24T12:24:29.798Z,13.92
2024-02-24T12:27:01.739Z,13.93
2024-02-24T12:29:30.418Z,13.94
2024-02-24T12:31:57.159Z,13.76
2024-02-24T12:34:25.404Z,13.66
2024-02-24T12:36:58.289Z,13.64
2024-02-24T12:39:25.717Z,13.59
2024-02-24T12:41:55.640Z,13.88
2024-02-24T12:44:22.672Z,13.99
2024-02-24T12:46:49.652Z,13.70
2024-02-24T12:49:16.476Z,13.72
2024-02-24T12:51:51.266Z,13.59
2024-02-24T12:54:18.050Z,13.92
2024-02-24T12:56:44.826Z,13.94
2024-02-24T12:59:13.286Z,14.07
2024-02-24T13:01:40.269Z,14.08
2024-02-24T13:04:06.993Z,13.90
2024-02-24T13:06:33.954Z,13.91
2024-02-24T13:09:00.913Z,13.80
2024-02-24T13:11:27.739Z,13.78
2024-02-24T13:13:54.507Z,13.96
2024-02-24T13:16:21.165Z,14.12
2024-02-24T13:18:48.048Z,14.29
2024-02-24T13:21:14.779Z,13.81
2024-02-24T13:23:41.462Z,13.67
2024-02-24T13:26:08.151Z,13.78
2024-02-24T13:28:34.841Z,13.80
2024-02-24T13:31:01.522Z,13.65
2024-02-24T13:33:28.448Z,13.76
2024-02-24T13:35:55.423Z,14.11
2024-02-24T13:38:22.143Z,14.08
2024-02-24T13:40:48.984Z,13.71
2024-02-24T13:43:15.703Z,14.07
2024-02-24T13:45:42.908Z,13.79
2024-02-24T13:48:09.795Z,13.80
2024-02-24T13:50:36.639Z,13.84
2024-02-24T13:53:03.598Z,13.92
2024-02-24T13:55:30.283Z,13.98
2024-02-24T13:57:56.989Z,13.75
2024-02-24T14:00:23.736Z,13.70
2024-02-24T14:02:50.880Z,13.86
2024-02-24T14:05:17.880Z,13.75
2024-02-24T14:07:45.492Z,13.97
2024-02-24T14:10:12.245Z,14.00
2024-02-24T14:12:38.961Z,14.07
2024-02-24T14:15:06.067Z,14.07
2024-02-24T14:17:33.136Z,13.86
2024-02-24T14:20:05.544Z,14.19
2024-02-24T14:22:38.492Z,14.08
2024-02-24T14:25:05.638Z,14.04
2024-02-24T14:27:32.271Z,13.72
2024-02-24T14:29:59.029Z,14.02
2024-02-24T14:32:25.739Z,14.27
2024-02-24T14:34:52.687Z,14.32
2024-02-24T14:37:19.508Z,14.59
2024-02-24T14:39:46.237Z,14.38
2024-02-24T14:42:12.924Z,14.26
2024-02-24T14:44:39.705Z,14.28
2024-02-24T14:47:08.498Z,14.68
2024-02-24T14:49:35.534Z,14.60
2024-02-24T14:52:02.372Z,14.69
2024-02-24T14:54:29.152Z,14.62
2024-02-24T14:56:56.051Z,14.69
2024-02-24T14:59:22.998Z,14.14
2024-02-24T15:01:49.640Z,14.09
2024-02-24T15:04:16.534Z,14.29
2024-02-24T15:06:46.076Z,13.84
2024-02-24T15:09:13.209Z,14.12
2024-02-24T15:11:43.880Z,14.25
2024-02-24T15:14:11.018Z,14.16
2024-02-24T15:16:38.132Z,14.10
2024-02-24T15:19:05.060Z,14.29
2024-02-24T15:21:31.864Z,14.46
2024-02-24T15:23:58.760Z,13.97
2024-02-24T15:26:27.669Z,14.00
2024-02-24T15:28:55.128Z,13.70
2024-02-24T15:31:23.398Z,14.02
2024-02-24T15:33:50.283Z,14.22
2024-02-24T15:36:17.315Z,14.22
2024-02-24T15:38:44.318Z,13.81
2024-02-24T15:41:11.318Z,13.41
2024-02-24T15:43:38.739Z,13.60
2024-02-24T15:46:05.615Z,13.68
2024-02-24T15:48:32.622Z,13.35
2024-02-24T15:50:59.782Z,13.46
2024-02-24T15:53:26.904Z,13.35
2024-02-24T15:55:58.818Z,13.25
2024-02-24T15:58:25.846Z,13.06
2024-02-24T16:00:52.697Z,12.79
2024-02-24T16:03:19.641Z,12.98
2024-02-24T16:05:46.418Z,12.68
2024-02-24T16:08:13.293Z,12.54
2024-02-24T16:10:40.302Z,12.63
2024-02-24T16:13:11.557Z,12.35
2024-02-24T16:15:38.314Z,12.43
2024-02-24T16:18:05.937Z,12.37
2024-02-24T16:20:33.373Z,12.25
2024-02-24T16:23:01.115Z,12.40
2024-02-24T16:25:27.855Z,12.45
2024-02-24T16:27:54.819Z,12.22
2024-02-24T16:30:22.585Z,12.28
2024-02-24T16:32:50.914Z,12.36
2024-02-24T16:35:17.929Z,12.43
2024-02-24T16:37:44.896Z,12.40
2024-02-24T16:40:11.893Z,12.29
2024-02-24T16:42:39.145Z,12.30
2024-02-24T16:45:06.949Z,12.22
2024-02-24T16:47:33.899Z,12.11
2024-02-24T16:50:00.811Z,11.79
2024-02-24T16:52:27.646Z,11.74
2024-02-24T16:54:54.551Z,12.01
2024-02-24T16:57:21.631Z,11.86
2024-02-24T16:59:48.773Z,11.80
2024-02-24T17:02:15.630Z,11.62
2024-02-24T17:04:42.880Z,11.76
2024-02-24T17:07:09.837Z,11.67
2024-02-24T17:09:36.604Z,11.80
2024-02-24T17:12:04.324Z,11.46
2024-02-24T17:14:31.386Z,11.38
2024-02-24T17:16:58.196Z,11.51
2024-02-24T17:19:25.681Z,11.42
2024-02-24T17:21:52.698Z,11.17
2024-02-24T17:24:19.602Z,11.04
2024-02-24T17:26:47.523Z,11.06
2024-02-24T17:29:14.460Z,11.12
2024-02-24T17:31:41.198Z,11.03
2024-02-24T17:34:08.211Z,10.56
2024-02-24T17:36:39.933Z,10.75
2024-02-24T17:39:07.763Z,10.67
2024-02-24T17:41:34.477Z,10.49
2024-02-24T17:44:01.217Z,10.70
2024-02-24T17:46:28.260Z,10.61
2024-02-24T17:48:55.395Z,10.56
2024-02-24T17:51:22.282Z,10.88
2024-02-24T17:53:49.052Z,11.08
2024-02-24T17:56:15.880Z,11.25
2024-02-24T17:58:47.349Z,11.40
2024-02-24T18:01:14.944Z,11.73
2024-02-24T18:03:41.942Z,11.89
2024-02-24T18:06:08.859Z,11.72
2024-02-24T18:08:35.794Z,11.61
2024-02-24T18:11:02.524Z,11.59
2024-02-24T18:13:29.152Z,11.70
2024-02-24T18:15:55.832Z,11.57
2024-02-24T18:18:22.733Z,11.53
2024-02-24T18:20:49.508Z,11.65
2024-02-24T18:23:16.350Z,11.45
2024-02-24T18:25:43.090Z,11.47
2024-02-24T18:28:09.848Z,11.43
2024-02-24T18:30:36.611Z,11.74
2024-02-24T18:33:03.467Z,11.56
2024-02-24T18:35:30.344Z,11.29
2024-02-24T18:37:57.058Z,11.40
2024-02-24T18:40:23.715Z,11.54
2024-02-24T18:42:50.598Z,11.38
2024-02-24T18:45:17.459Z,11.39
2024-02-24T18:47:44.215Z,11.37
2024-02-24T18:50:11.438Z,11.35
2024-02-24T18:52:40.953Z,11.35
2024-02-24T18:55:08.113Z,11.43
2024-02-24T18:57:34.725Z,11.51
2024-02-24T19:00:01.634Z,11.59
2024-02-24T19:02:28.635Z,11.24
2024-02-24T19:04:55.545Z,11.37
2024-02-24T19:07:22.392Z,11.50
2024-02-24T19:09:49.112Z,11.42
2024-02-24T19:12:17.285Z,11.30
2024-02-24T19:14:51.580Z,11.53
2024-02-24T19:17:21.950Z,11.59
2024-02-24T19:19:50.553Z,11.60
2024-02-24T19:22:17.473Z,11.39
2024-02-24T19:24:44.382Z,11.36
2024-02-24T19:27:11.197Z,11.28
2024-02-24T19:29:39.938Z,11.37
2024-02-24T19:32:06.909Z,11.29
2024-02-24T19:34:33.746Z,11.44
2024-02-24T19:37:01.159Z,11.45
2024-02-24T19:39:27.946Z,11.54
2024-02-24T19:41:57.016Z,11.49
2024-02-24T19:44:26.097Z,11.27
2024-02-24T19:46:52.872Z,11.27
2024-02-24T19:49:19.932Z,11.56
2024-02-24T19:51:46.747Z,11.74
2024-02-24T19:54:13.610Z,11.85
2024-02-24T19:56:40.433Z,11.77
2024-02-24T19:59:07.201Z,11.85
2024-02-24T20:01:33.922Z,11.89
2024-02-24T20:04:00.795Z,11.96
2024-02-24T20:06:27.726Z,11.80
2024-02-24T20:08:55.958Z,11.27
2024-02-24T20:11:22.945Z,11.45
2024-02-24T20:13:49.725Z,11.24
2024-02-24T20:16:16.525Z,11.62
2024-02-24T20:18:46.148Z,11.55
2024-02-24T20:21:13.744Z,11.52
2024-02-24T20:23:40.533Z,11.25
2024-02-24T20:26:07.382Z,11.16
2024-02-24T20:28:34.299Z,10.81
2024-02-24T20:31:00.973Z,11.16
2024-02-24T20:33:28.003Z,11.26
2024-02-24T20:35:54.842Z,11.37
2024-02-24T20:38:21.543Z,11.10
2024-02-24T20:40:48.908Z,11.04
2024-02-24T20:43:16.744Z,11.03
2024-02-24T20:45:43.416Z,10.84
2024-02-24T20:48:11.249Z,10.66
2024-02-24T20:50:38.396Z,10.66
2024-02-24T20:53:05.367Z,10.84
2024-02-24T20:55:32.101Z,11.05
2024-02-24T20:57:59.138Z,10.91
2024-02-24T21:00:26.004Z,10.77
2024-02-24T21:02:52.836Z,11.14
2024-02-24T21:05:19.737Z,10.84
2024-02-24T21:07:46.403Z,10.88
2024-02-24T21:10:13.344Z,10.83
2024-02-24T21:12:40.125Z,10.38
2024-02-24T21:15:07.663Z,10.26
2024-02-24T21:17:34.822Z,10.37
2024-02-24T21:20:04.922Z,10.40
2024-02-24T21:22:33.334Z,10.51
2024-02-24T21:25:02.980Z,10.64
2024-02-24T21:27:30.257Z,10.79
2024-02-24T21:29:57.216Z,10.20
2024-02-24T21:32:24.100Z,10.35
2024-02-24T21:34:50.935Z,10.41
2024-02-24T21:37:21.489Z,10.57
2024-02-24T21:39:49.315Z,10.65
2024-02-24T21:42:16.435Z,10.77
2024-02-24T21:44:43.247Z,10.54
2024-02-24T21:47:10.110Z,11.00
2024-02-24T21:49:36.953Z,10.90
2024-02-24T21:52:06.527Z,10.79
2024-02-24T21:54:34.871Z,10.81
2024-02-24T21:57:01.866Z,10.28
2024-02-24T21:59:28.764Z,10.41
2024-02-24T22:01:55.585Z,10.61
2024-02-24T22:04:25.137Z,10.60
2024-02-24T22:06:55.233Z,10.60
2024-02-24T22:09:22.182Z,10.49
2024-02-24T22:11:49.025Z,10.57
2024-02-24T22:14:22.170Z,10.51
2024-02-24T22:16:49.709Z,10.53
2024-02-24T22:19:16.958Z,10.17
2024-02-24T22:21:43.884Z,10.32
2024-02-24T22:24:10.743Z,10.34
2024-02-24T22:26:37.738Z,10.58
2024-02-24T22:29:04.638Z,10.65
2024-02-24T22:31:31.293Z,10.83
2024-02-24T22:33:58.263Z,10.39
2024-02-24T22:36:25.142Z,10.55
2024-02-24T22:38:53.598Z,10.36
2024-02-24T22:41:24.163Z,10.56
2024-02-24T22:43:51.264Z,10.59
2024-02-24T22:46:21.721Z,10.74
2024-02-24T22:48:48.843Z,10.52
2024-02-24T22:51:16.572Z,10.48
2024-02-24T22:53:43.323Z,10.36
2024-02-24T22:56:10.020Z,10.13
2024-02-24T22:58:36.787Z,10.06
2024-02-24T23:01:03.972Z,9.76
2024-02-24T23:03:31.236Z,9.82
2024-02-24T23:05:58.094Z,9.84
2024-02-24T23:08:24.918Z,9.72
2024-02-24T23:10:51.724Z,9.93
2024-02-24T23:13:18.460Z,9.66
2024-02-24T23:15:45.086Z,9.52
2024-02-24T23:18:11.909Z,9.55
2024-02-24T23:20:38.697Z,10.32
2024-02-24T23:23:06.666Z,10.20
2024-02-24T23:25:33.459Z,9.94
2024-02-24T23:28:00.417Z,9.89
2024-02-24T23:30:27.144Z,9.72
2024-02-24T23:32:54.025Z,10.06
2024-02-24T23:35:20.892Z,10.45
2024-02-24T23:37:47.627Z,9.88
2024-02-24T23:40:14.566Z,9.61
2024-02-24T23:42:41.239Z,9.54
2024-02-24T23:45:08.226Z,9.58
2024-02-24T23:47:34.990Z,9.71
2024-02-24T23:50:02.031Z,9.29
2024-02-24T23:52:28.741Z,9.53
2024-02-24T23:54:56.253Z,9.18
2024-02-24T23:57:24.416Z,9.21
2024-02-24T23:59:51.240Z,9.18
